Time;durP1;ratioP1;P1;durP2;ratioP2;P2;SDS_P1;SDS_P2;PMS_P1;PMS_P2;Temp;Humidity;BMP_temperature;BMP_pressure;BME280_temperature;BME280_humidity;BME280_pressure;Samples;Min_cycle;Max_cycle;Signal;HPM_P1;HPM_P2
2021/09/08 00:00:35;;;;;;;30.52;14.40;;;;;;;7.38;73.04;102258.88;1852785;77;20909;-66
2021/09/08 00:03:02;;;;;;;27.93;13.13;;;;;;;7.35;73.19;102250.67;1852994;77;21491;-66
2021/09/08 00:05:31;;;;;;;27.48;13.83;;;;;;;7.35;73.34;102255.03;1852769;77;20905;-67
2021/09/08 00:07:58;;;;;;;32.30;14.18;;;;;;;7.33;73.55;102251.59;1852959;77;20893;-67
2021/09/08 00:10:26;;;;;;;21.52;12.33;;;;;;;7.32;73.62;102249.44;1852667;77;20862;-67
2021/09/08 00:12:55;;;;;;;23.22;13.05;;;;;;;7.32;73.69;102250.73;1852652;77;20933;-66
2021/09/08 00:15:22;;;;;;;23.18;12.90;;;;;;;7.33;73.74;102253.75;1852774;77;21033;-67
2021/09/08 00:17:50;;;;;;;21.93;12.15;;;;;;;7.34;73.90;102250.72;1852727;77;21374;-67
2021/09/08 00:20:19;;;;;;;24.47;12.75;;;;;;;7.33;73.96;102251.14;1852769;77;20909;-67
2021/09/08 00:22:47;;;;;;;29.30;11.90;;;;;;;7.33;73.86;102254.20;1852560;77;20886;-67
2021/09/08 00:25:14;;;;;;;26.45;12.68;;;;;;;7.33;73.73;102245.92;1852655;77;21429;-67
2021/09/08 00:27:41;;;;;;;22.73;12.05;;;;;;;7.32;73.69;102255.96;1852780;77;21138;-66
2021/09/08 00:30:09;;;;;;;28.98;13.70;;;;;;;7.32;73.64;102255.96;1852764;77;20898;-67
2021/09/08 00:32:36;;;;;;;22.73;13.00;;;;;;;7.34;73.41;102258.55;1853158;77;21438;-67
2021/09/08 00:35:05;;;;;;;25.00;11.73;;;;;;;7.33;73.48;102252.89;1852618;77;20878;-67
2021/09/08 00:37:32;;;;;;;19.00;9.98;;;;;;;7.33;73.55;102252.45;1853079;77;21382;-68
2021/09/08 00:40:00;;;;;;;28.85;13.08;;;;;;;7.32;73.51;102252.05;1852635;77;21118;-67
2021/09/08 00:42:26;;;;;;;20.45;12.00;;;;;;;7.31;73.53;102252.92;1851528;76;20964;-67
2021/09/08 00:44:54;;;;;;;22.37;12.35;;;;;;;7.30;73.44;102252.52;1852630;77;21386;-66
2021/09/08 00:47:21;;;;;;;20.80;10.68;;;;;;;7.29;73.46;102248.62;1852994;77;20909;-68
2021/09/08 00:49:49;;;;;;;26.12;11.30;;;;;;;7.25;73.50;102247.84;1852594;77;20861;-67
2021/09/08 00:52:16;;;;;;;20.05;11.22;;;;;;;7.23;73.60;102250.93;1853039;77;21488;-67
2021/09/08 00:54:48;;;;;;;23.25;10.78;;;;;;;7.20;73.54;102253.16;1852541;77;20917;-68
2021/09/08 00:57:18;;;;;;;19.62;10.90;;;;;;;7.19;73.54;102249.27;1852674;76;20889;-67
2021/09/08 00:59:45;;;;;;;25.72;13.53;;;;;;;7.19;73.56;102254.48;1852704;77;20984;-67
2021/09/08 01:02:12;;;;;;;22.13;12.58;;;;;;;7.17;73.33;102251.89;1852595;77;20945;-68
2021/09/08 01:04:39;;;;;;;25.02;12.07;;;;;;;7.16;73.17;102259.32;1852702;77;21140;-68
2021/09/08 01:07:09;;;;;;;21.77;10.88;;;;;;;7.17;73.15;102262.78;1852632;77;21319;-68
2021/09/08 01:09:38;;;;;;;23.38;10.68;;;;;;;7.17;73.12;102260.17;1852915;77;21887;-66
2021/09/08 01:12:07;;;;;;;20.92;10.95;;;;;;;7.16;73.05;102258.44;1853045;77;20937;-66
2021/09/08 01:14:37;;;;;;;18.07;9.63;;;;;;;7.14;73.09;102255.02;1852609;77;20909;-67
2021/09/08 01:17:06;;;;;;;27.95;11.65;;;;;;;7.11;73.13;102261.14;1852946;77;22537;-67
2021/09/08 01:19:34;;;;;;;28.25;11.80;;;;;;;7.09;73.15;102256.39;1852484;77;21501;-66
2021/09/08 01:22:03;;;;;;;24.82;11.12;;;;;;;7.04;73.19;102256.48;1822448;77;21693;-67
2021/09/08 01:24:30;;;;;;;20.40;12.13;;;;;;;7.00;73.30;102253.54;1852586;77;20870;-67
2021/09/08 01:26:58;;;;;;;16.87;9.98;;;;;;;6.95;73.21;102254.05;1853135;77;20897;-67
2021/09/08 01:29:25;;;;;;;24.23;12.10;;;;;;;6.91;73.62;102256.29;1852780;77;21104;-67
2021/09/08 01:31:55;;;;;;;20.05;10.65;;;;;;;6.92;73.95;102255.88;1853102;77;20940;-67
2021/09/08 01:34:23;;;;;;;20.10;10.03;;;;;;;6.94;74.00;102251.48;1852872;77;20988;-67
2021/09/08 01:36:51;;;;;;;27.05;11.30;;;;;;;6.94;73.92;102249.73;1853156;77;20887;-66
2021/09/08 01:39:19;;;;;;;20.35;10.85;;;;;;;6.98;73.92;102250.52;1852702;77;20913;-66
2021/09/08 01:41:47;;;;;;;22.93;10.20;;;;;;;6.98;73.93;102251.40;1852892;77;21178;-66
2021/09/08 01:44:19;;;;;;;19.75;9.95;;;;;;;6.99;73.84;102247.89;1852863;77;20968;-65
2021/09/08 01:46:48;;;;;;;22.42;9.65;;;;;;;7.01;73.79;102244.81;1853240;77;20894;-66
2021/09/08 01:49:15;;;;;;;24.40;12.23;;;;;;;7.02;73.70;102240.45;1852767;77;20933;-65
2021/09/08 01:51:42;;;;;;;24.57;12.33;;;;;;;7.03;73.73;102247.41;1852952;77;20909;-66
2021/09/08 01:54:09;;;;;;;20.02;10.75;;;;;;;7.01;73.67;102246.56;1852784;77;21147;-66
2021/09/08 01:56:36;;;;;;;23.83;11.40;;;;;;;6.99;73.38;102245.28;1852810;77;20960;-66
2021/09/08 01:59:03;;;;;;;29.50;15.15;;;;;;;6.92;73.35;102245.44;1852844;77;20976;-66
2021/09/08 02:01:30;;;;;;;24.35;13.83;;;;;;;6.84;73.63;102249.47;1852744;77;20889;-66
2021/09/08 02:03:57;;;;;;;29.87;13.25;;;;;;;6.81;73.89;102245.18;1852913;77;20823;-65
2021/09/08 02:06:28;;;;;;;28.45;14.35;;;;;;;6.80;73.97;102248.69;1853189;77;21166;-65
2021/09/08 02:08:57;;;;;;;25.70;12.55;;;;;;;6.77;73.93;102243.52;1852949;77;21998;-66
2021/09/08 02:11:25;;;;;;;27.45;12.80;;;;;;;6.74;74.03;102243.58;1852840;77;21394;-66
2021/09/08 02:13:52;;;;;;;27.27;11.03;;;;;;;6.73;73.95;102247.05;1852665;77;20905;-66
2021/09/08 02:16:20;;;;;;;31.17;12.35;;;;;;;6.71;73.90;102247.52;1852855;77;20897;-66
2021/09/08 02:18:50;;;;;;;42.43;11.75;;;;;;;6.71;73.85;102250.13;1852905;77;20913;-65
2021/09/08 02:21:17;;;;;;;25.32;11.53;;;;;;;6.69;73.83;102238.87;1852681;77;20842;-65
2021/09/08 02:23:46;;;;;;;25.10;10.95;;;;;;;6.69;73.86;102246.69;1852962;77;20877;-65
2021/09/08 02:26:14;;;;;;;17.67;10.03;;;;;;;6.69;73.96;102244.53;1852818;77;21426;-66
2021/09/08 02:28:43;;;;;;;62.93;28.25;;;;;;;6.69;74.04;102243.23;1852745;77;20965;-66
2021/09/08 02:31:10;;;;;;;50.58;29.23;;;;;;;6.69;74.03;102245.83;1853126;77;21488;-67
2021/09/08 02:33:37;;;;;;;44.18;21.07;;;;;;;6.68;74.06;102238.46;1852804;77;21343;-66
2021/09/08 02:36:04;;;;;;;55.28;30.25;;;;;;;6.69;74.16;102239.31;1852775;77;20917;-65
2021/09/08 02:38:33;;;;;;;60.67;37.08;;;;;;;6.69;74.39;102239.31;1852721;77;21022;-65
2021/09/08 02:41:01;;;;;;;61.02;33.60;;;;;;;6.69;74.41;102236.71;1852807;76;21354;-66
2021/09/08 02:43:28;;;;;;;68.83;39.55;;;;;;;6.66;74.19;102236.33;1856635;77;21146;-65
2021/09/08 02:45:59;;;;;;;70.20;39.45;;;;;;;6.63;74.39;102241.16;1856591;77;21434;-65
2021/09/08 02:48:25;;;;;;;56.42;32.00;;;;;;;6.64;74.47;102240.25;1856682;77;20944;-65
2021/09/08 02:50:53;;;;;;;56.50;32.10;;;;;;;6.66;74.39;102243.30;1856656;77;21557;-66
2021/09/08 02:53:20;;;;;;;52.43;28.65;;;;;;;6.66;74.26;102235.02;1856645;77;20823;-65
2021/09/08 02:55:47;;;;;;;56.42;29.65;;;;;;;6.66;74.13;102236.77;1856864;77;21130;-66
2021/09/08 02:58:14;;;;;;;47.98;28.10;;;;;;;6.63;73.98;102236.39;1856870;77;21391;-65
2021/09/08 03:00:41;;;;;;;44.05;24.60;;;;;;;6.61;73.87;102243.37;1856727;77;20869;-65
2021/09/08 03:03:07;;;;;;;39.25;21.30;;;;;;;6.56;73.78;102244.77;1856785;77;21319;-65
2021/09/08 03:05:34;;;;;;;40.60;19.65;;;;;;;6.51;73.72;102241.34;1856861;77;21484;-65
2021/09/08 03:08:03;;;;;;;37.17;20.35;;;;;;;6.46;73.74;102241.88;1856674;77;21130;-66
2021/09/08 03:10:33;;;;;;;33.10;17.42;;;;;;;6.41;73.85;102243.71;1856580;77;20932;-65
2021/09/08 03:13:01;;;;;;;45.12;20.17;;;;;;;6.38;73.96;102250.25;1856783;77;20861;-64
2021/09/08 03:15:29;;;;;;;39.18;17.30;;;;;;;6.35;74.04;102245.95;1856656;77;21019;-65
2021/09/08 03:17:55;;;;;;;38.05;18.25;;;;;;;6.32;74.02;102243.41;1856963;77;21394;-65
2021/09/08 03:20:22;;;;;;;37.05;19.00;;;;;;;6.30;74.04;102246.94;1856792;77;21901;-65
2021/09/08 03:22:49;;;;;;;40.30;21.17;;;;;;;6.30;74.15;102256.05;1856526;77;20949;-65
2021/09/08 03:25:16;;;;;;;46.00;19.95;;;;;;;6.30;74.22;102252.14;1856783;77;20906;-65
2021/09/08 03:27:43;;;;;;;38.40;21.07;;;;;;;6.32;74.32;102256.89;1856991;77;20973;-64
2021/09/08 03:30:12;;;;;;;44.77;23.38;;;;;;;6.35;74.38;102260.73;1856706;77;21382;-65
2021/09/08 03:32:39;;;;;;;40.60;20.25;;;;;;;6.35;74.49;102258.98;1856902;77;21959;-65
2021/09/08 03:35:07;;;;;;;49.35;19.62;;;;;;;6.38;74.54;102259.38;1856621;77;20881;-65
2021/09/08 03:37:33;;;;;;;37.93;22.15;;;;;;;6.40;74.46;102258.49;1857136;77;21386;-65
2021/09/08 03:40:00;;;;;;;37.60;20.82;;;;;;;6.43;74.44;102257.13;1856684;77;20853;-66
2021/09/08 03:42:28;;;;;;;43.83;21.68;;;;;;;6.46;74.49;102253.61;1844744;77;21412;-65
2021/09/08 03:44:55;;;;;;;48.65;21.82;;;;;;;6.48;74.69;102251.84;1825762;77;21324;-65
2021/09/08 03:47:22;;;;;;;45.85;23.83;;;;;;;6.50;74.96;102251.38;1825579;78;21325;-65
2021/09/08 03:49:49;;;;;;;44.35;23.55;;;;;;;6.52;75.15;102252.20;1825405;77;20970;-66
2021/09/08 03:52:17;;;;;;;46.15;25.25;;;;;;;6.54;75.12;102240.02;1825410;77;20867;-67
2021/09/08 03:54:44;;;;;;;41.15;21.82;;;;;;;6.58;75.04;102244.71;1825650;77;21446;-67
2021/09/08 03:57:11;;;;;;;42.53;23.00;;;;;;;6.63;74.84;102248.97;1825473;77;21095;-68
2021/09/08 03:59:39;;;;;;;38.95;20.15;;;;;;;6.66;74.80;102253.27;1825351;77;21432;-66
2021/09/08 04:02:06;;;;;;;51.42;24.18;;;;;;;6.70;74.74;102250.18;1825355;77;20906;-66
2021/09/08 04:04:33;;;;;;;39.10;23.18;;;;;;;6.75;74.66;102250.95;1825378;77;20930;-69
2021/09/08 04:07:03;;;;;;;45.88;23.32;;;;;;;6.81;74.50;102256.06;1825528;77;20922;-66
2021/09/08 04:09:32;;;;;;;50.33;23.12;;;;;;;6.84;74.32;102262.06;1825537;77;22557;-67
2021/09/08 04:11:59;;;;;;;43.23;23.45;;;;;;;6.92;74.25;102257.17;1825352;77;21316;-68
2021/09/08 04:14:26;;;;;;;41.30;21.75;;;;;;;6.99;74.09;102258.32;1825761;77;20930;-68
2021/09/08 04:16:54;;;;;;;70.45;21.57;;;;;;;7.06;74.08;102249.94;1825636;77;21001;-69
2021/09/08 04:19:21;;;;;;;41.33;21.07;;;;;;;7.13;74.01;102250.68;1825664;77;20843;-68
2021/09/08 04:21:48;;;;;;;45.17;22.77;;;;;;;7.19;73.89;102242.29;1825263;77;21064;-67
2021/09/08 04:24:16;;;;;;;48.68;24.70;;;;;;;7.26;73.74;102245.19;1825378;77;21348;-66
2021/09/08 04:26:44;;;;;;;57.25;25.30;;;;;;;7.31;73.66;102244.23;1825416;77;20919;-69
2021/09/08 04:29:11;;;;;;;44.98;23.30;;;;;;;7.34;73.64;102250.72;1825760;78;20855;-68
2021/09/08 04:31:39;;;;;;;51.92;24.47;;;;;;;7.38;73.68;102244.09;1825371;77;20867;-70
2021/09/08 04:34:06;;;;;;;57.90;25.40;;;;;;;7.41;73.89;102247.94;1825772;77;21849;-69
2021/09/08 04:36:34;;;;;;;54.63;25.50;;;;;;;7.45;74.01;102245.69;1825221;77;20970;-72
2021/09/08 04:39:01;;;;;;;65.25;24.75;;;;;;;7.50;74.26;102242.12;1825355;78;20914;-72
2021/09/08 04:41:28;;;;;;;66.97;27.65;;;;;;;7.58;74.55;102242.38;1825341;78;20934;-72
2021/09/08 04:43:55;;;;;;;61.68;25.82;;;;;;;7.71;74.75;102242.09;1847245;77;20913;-71
2021/09/08 04:46:21;;;;;;;71.92;25.65;;;;;;;7.96;74.96;102241.97;1850957;77;21103;-71
2021/09/08 04:48:48;;;;;;;68.80;26.17;;;;;;;8.47;74.90;102244.27;1851047;77;20901;-73
2021/09/08 04:51:19;;;;;;;63.75;25.32;;;;;;;9.16;73.88;102249.44;1850995;76;20936;-71
2021/09/08 04:53:47;;;;;;;76.37;24.85;;;;;;;9.94;72.19;102248.44;1850953;77;20952;-71
2021/09/08 04:56:16;;;;;;;63.78;23.67;;;;;;;10.75;70.08;102252.80;1850836;77;20921;-74
2021/09/08 04:58:43;;;;;;;47.53;25.68;;;;;;;11.58;67.86;102247.63;1850892;77;21520;-72
2021/09/08 05:01:10;;;;;;;45.45;24.52;;;;;;;12.33;65.65;102247.78;1850818;77;20862;-70
2021/09/08 05:03:37;;;;;;;61.05;26.52;;;;;;;13.06;63.43;102250.36;1851337;77;21457;-71
2021/09/08 05:06:04;;;;;;;82.92;27.13;;;;;;;13.76;61.46;102245.45;1851089;77;20952;-72
2021/09/08 05:08:31;;;;;;;56.85;25.62;;;;;;;14.39;59.35;102248.53;1851362;76;21347;-70
2021/09/08 05:10:58;;;;;;;55.00;26.30;;;;;;;14.97;57.52;102244.73;1850976;77;21490;-71
2021/09/08 05:13:25;;;;;;;53.55;27.20;;;;;;;15.51;55.99;102245.33;1851332;77;20973;-72
2021/09/08 05:15:52;;;;;;;82.65;32.60;;;;;;;16.05;54.55;102252.97;1851066;77;20866;-72
2021/09/08 05:18:20;;;;;;;88.30;30.57;;;;;;;16.58;53.33;102245.03;1849949;77;20964;-72
2021/09/08 05:20:47;;;;;;;51.23;28.15;;;;;;;17.13;52.41;102248.80;1849164;77;20948;-71
2021/09/08 05:23:14;;;;;;;103.97;36.60;;;;;;;17.61;51.50;102241.85;1851304;77;21094;-72
2021/09/08 05:25:41;;;;;;;100.60;34.88;;;;;;;18.09;50.47;102248.08;1850930;77;20838;-72
2021/09/08 05:28:09;;;;;;;75.83;33.15;;;;;;;18.55;49.54;102245.86;1850972;77;21312;-72
2021/09/08 05:30:35;;;;;;;71.12;30.68;;;;;;;18.98;48.86;102246.07;1850935;77;20960;-73
2021/09/08 05:33:02;;;;;;;83.60;30.88;;;;;;;19.40;48.10;102239.52;1825206;77;20889;-71
2021/09/08 05:35:30;;;;;;;74.75;29.95;;;;;;;19.83;47.50;102235.59;1851199;77;21431;-70
2021/09/08 05:37:57;;;;;;;67.53;29.12;;;;;;;20.26;46.82;102239.07;1850919;77;20957;-70
2021/09/08 05:40:24;;;;;;;61.08;29.67;;;;;;;20.70;45.86;102240.20;1850988;77;20996;-71
2021/09/08 05:42:52;;;;;;;59.45;28.23;;;;;;;21.07;45.16;102232.81;1851419;77;20931;-71
2021/09/08 05:45:19;;;;;;;46.68;26.60;;;;;;;21.42;44.46;102235.03;1852907;77;20901;-73
2021/09/08 05:47:46;;;;;;;44.58;26.42;;;;;;;21.78;44.12;102232.52;1853035;77;21957;-74
2021/09/08 05:50:13;;;;;;;57.23;28.15;;;;;;;22.17;43.39;102237.37;1852788;77;20908;-70
2021/09/08 05:52:40;;;;;;;56.02;25.77;;;;;;;22.48;42.88;102235.66;1853061;77;20870;-69
2021/09/08 05:55:08;;;;;;;51.35;25.30;;;;;;;22.79;42.33;102231.67;1852792;77;20862;-69
2021/09/08 05:57:34;;;;;;;55.50;26.57;;;;;;;23.15;41.96;102228.50;1852800;77;20885;-69
2021/09/08 06:00:02;;;;;;;49.67;25.92;;;;;;;23.53;41.45;102220.73;1852920;77;21465;-70
2021/09/08 06:02:32;;;;;;;47.08;26.12;;;;;;;23.91;40.79;102221.80;1851544;77;21347;-70
2021/09/08 06:04:58;;;;;;;51.00;25.40;;;;;;;24.26;40.25;102221.22;1852793;77;20830;-71
2021/09/08 06:07:25;;;;;;;49.42;24.52;;;;;;;24.59;39.86;102225.29;1852750;77;21450;-70
2021/09/08 06:09:53;;;;;;;43.55;23.77;;;;;;;24.89;39.54;102229.22;1852896;77;20865;-69
2021/09/08 06:12:19;;;;;;;40.90;23.05;;;;;;;25.19;39.09;102227.64;1853222;77;21469;-70
2021/09/08 06:14:47;;;;;;;31.97;21.05;;;;;;;25.48;38.63;102225.30;1852704;77;20913;-70
2021/09/08 06:17:14;;;;;;;32.38;19.95;;;;;;;25.76;38.15;102227.92;1852742;77;21449;-71
2021/09/08 06:19:41;;;;;;;34.38;21.07;;;;;;;26.02;37.57;102227.54;1852955;77;20847;-70
2021/09/08 06:22:10;;;;;;;31.55;18.92;;;;;;;26.19;37.16;102233.91;1852743;77;20921;-71
2021/09/08 06:24:38;;;;;;;35.68;20.00;;;;;;;26.46;36.98;102232.94;1852689;77;21951;-71
2021/09/08 06:27:06;;;;;;;37.30;18.90;;;;;;;26.66;36.37;102221.50;1852656;77;20913;-70
2021/09/08 06:29:33;;;;;;;36.50;19.12;;;;;;;26.79;36.17;102226.45;1852864;77;20846;-70
2021/09/08 06:31:59;;;;;;;30.60;18.55;;;;;;;26.97;35.46;102226.37;1852992;77;21383;-68
2021/09/08 06:34:26;;;;;;;29.07;17.73;;;;;;;27.13;35.42;102235.03;1852934;77;20948;-68
2021/09/08 06:36:53;;;;;;;29.70;17.00;;;;;;;27.38;35.11;102227.90;1852750;76;21116;-70
2021/09/08 06:39:21;;;;;;;30.90;17.05;;;;;;;27.68;34.74;102226.47;1852842;77;20972;-69
2021/09/08 06:41:48;;;;;;;27.85;17.55;;;;;;;27.95;34.43;102227.20;1852798;77;20921;-68
2021/09/08 06:44:15;;;;;;;26.60;18.05;;;;;;;28.11;33.96;102220.97;1852425;77;20969;-70
2021/09/08 06:46:42;;;;;;;27.10;17.85;;;;;;;28.13;32.83;102219.46;1852788;77;20897;-69
2021/09/08 06:49:09;;;;;;;33.83;18.30;;;;;;;28.08;32.36;102225.33;1852770;77;21108;-68
2021/09/08 06:51:36;;;;;;;28.15;19.57;;;;;;;27.91;32.00;102220.45;1852609;77;20877;-68
2021/09/08 06:54:03;;;;;;;32.23;19.60;;;;;;;27.65;32.36;102217.86;1852865;77;21525;-69
2021/09/08 06:56:30;;;;;;;39.13;19.27;;;;;;;27.66;32.51;102213.66;1852869;77;20917;-69
2021/09/08 06:58:57;;;;;;;32.73;18.75;;;;;;;27.88;31.88;102214.03;1852971;77;21386;-68
2021/09/08 07:01:24;;;;;;;35.40;19.23;;;;;;;28.13;30.84;102211.38;1852724;77;21541;-68
2021/09/08 07:03:50;;;;;;;29.23;17.77;;;;;;;28.37;30.39;102211.83;1852866;77;20834;-70
2021/09/08 07:06:20;;;;;;;23.50;14.00;;;;;;;28.62;29.79;102212.67;1852710;77;20906;-67
2021/09/08 07:08:46;;;;;;;19.87;12.65;;;;;;;28.59;29.14;102214.35;1852759;77;20929;-70
2021/09/08 07:11:13;;;;;;;17.77;11.95;;;;;;;28.48;28.90;102212.38;1852719;77;21454;-69
2021/09/08 07:13:40;;;;;;;20.65;10.63;;;;;;;28.34;29.13;102212.18;1852688;77;21099;-69
2021/09/08 07:16:07;;;;;;;22.42;9.88;;;;;;;28.31;28.14;102210.67;1852798;77;20956;-73
2021/09/08 07:18:34;;;;;;;11.40;7.92;;;;;;;28.28;27.33;102206.47;1852645;77;20960;-68
2021/09/08 07:21:01;;;;;;;18.62;8.68;;;;;;;28.00;26.61;102201.08;1852927;77;20897;-71
2021/09/08 07:23:28;;;;;;;17.00;7.90;;;;;;;27.99;26.66;102209.69;1852927;77;20909;-71
2021/09/08 07:25:55;;;;;;;15.50;7.97;;;;;;;28.19;27.34;102202.09;1852834;77;21111;-70
2021/09/08 07:28:22;;;;;;;13.90;6.60;;;;;;;28.56;26.60;102202.56;1852747;77;20814;-72
2021/09/08 07:30:53;;;;;;;15.70;6.97;;;;;;;28.88;25.11;102197.55;1852775;77;20921;-72
2021/09/08 07:33:18;;;;;;;11.28;6.97;;;;;;;28.85;24.59;102197.40;1852390;77;20854;-71
2021/09/08 07:35:48;;;;;;;20.88;6.12;;;;;;;28.83;24.15;102194.03;1852821;77;21413;-71
2021/09/08 07:38:17;;;;;;;12.13;6.03;;;;;;;28.70;24.27;102189.20;1852762;77;21501;-71
2021/09/08 07:40:44;;;;;;;11.25;5.67;;;;;;;28.70;25.12;102191.91;1852539;77;20953;-72
2021/09/08 07:43:11;;;;;;;10.40;5.05;;;;;;;28.80;24.02;102188.16;1853074;77;20984;-71
2021/09/08 07:45:38;;;;;;;9.78;5.53;;;;;;;28.88;23.87;102189.45;1852836;77;21498;-71
2021/09/08 07:48:07;;;;;;;10.00;4.25;;;;;;;29.02;23.43;102194.13;1853337;77;20834;-70
2021/09/08 07:50:34;;;;;;;15.40;4.08;;;;;;;29.10;22.39;102192.78;1852818;77;21083;-71
2021/09/08 07:53:08;;;;;;;11.55;4.42;;;;;;;29.13;22.64;102192.94;1852731;77;20889;-72
2021/09/08 07:55:32;;;;;;;8.08;3.22;;;;;;;29.17;22.76;102187.52;1852166;77;20885;-71
2021/09/08 07:57:58;;;;;;;9.30;3.55;;;;;;;29.25;22.22;102193.38;1853198;77;21367;-71
2021/09/08 08:00:25;;;;;;;6.05;2.00;;;;;;;29.41;22.26;102193.27;1852997;77;20933;-72
2021/09/08 08:02:52;;;;;;;2.72;2.37;;;;;;;29.44;21.79;102179.94;1852907;77;21130;-69
2021/09/08 08:05:19;;;;;;;3.83;2.00;;;;;;;29.64;21.90;102191.12;1852760;77;20827;-70
2021/09/08 08:07:48;;;;;;;4.97;2.05;;;;;;;29.73;21.63;102181.95;1822652;77;21493;-70
2021/09/08 08:10:16;;;;;;;2.65;1.10;;;;;;;29.72;20.87;102185.66;1852751;77;20889;-70
2021/09/08 08:12:44;;;;;;;3.35;1.57;;;;;;;29.54;20.38;102181.88;1852924;77;20952;-72
2021/09/08 08:15:13;;;;;;;2.52;2.02;;;;;;;29.39;20.48;102178.25;1852752;77;21070;-71
2021/09/08 08:17:41;;;;;;;4.40;2.67;;;;;;;29.23;20.47;102175.98;1853062;77;20865;-72
2021/09/08 08:20:10;;;;;;;3.83;2.08;;;;;;;29.17;21.21;102178.06;1852826;77;20964;-70
2021/09/08 08:22:38;;;;;;;3.55;2.25;;;;;;;29.21;21.66;102185.28;1853178;77;21035;-71
2021/09/08 08:25:07;;;;;;;4.45;2.27;;;;;;;29.45;22.01;102182.95;1852802;77;20921;-76
2021/09/08 08:27:34;;;;;;;3.50;2.60;;;;;;;29.63;21.17;102182.14;1853191;77;21119;-72
2021/09/08 08:30:02;;;;;;;3.02;1.80;;;;;;;29.82;21.02;102181.38;1852991;77;20862;-71
2021/09/08 08:32:28;;;;;;;6.65;2.08;;;;;;;29.85;20.58;102179.65;1853147;77;20881;-72
2021/09/08 08:34:56;;;;;;;3.05;1.80;;;;;;;29.66;20.11;102175.52;1852992;77;21410;-72
2021/09/08 08:37:23;;;;;;;2.52;2.05;;;;;;;29.60;20.29;102176.27;1853071;77;20842;-72
2021/09/08 08:39:51;;;;;;;5.60;3.02;;;;;;;29.64;20.57;102168.13;1852953;77;21527;-73
2021/09/08 08:42:27;;;;;;;8.43;3.35;;;;;;;29.71;20.90;102174.53;1853094;77;20870;-72
2021/09/08 08:44:54;;;;;;;5.33;2.83;;;;;;;29.65;20.90;102171.16;1851497;77;20979;-71
2021/09/08 08:47:21;;;;;;;9.70;3.00;;;;;;;29.71;20.65;102167.25;1851344;76;20886;-72
2021/09/08 08:49:48;;;;;;;6.17;3.75;;;;;;;29.98;21.19;102165.52;1851210;77;20865;-70
2021/09/08 08:52:15;;;;;;;7.47;3.45;;;;;;;30.28;20.78;102161.87;1851373;77;21504;-72
2021/09/08 08:54:42;;;;;;;6.22;2.60;;;;;;;30.51;20.04;102150.11;1850912;77;21410;-71
2021/09/08 08:58:45;;;;;;;2.65;1.40;;;;;;;30.86;19.89;102151.23;1798657;79;22928;-71
2021/09/08 09:01:17;;;;;;;4.40;1.80;;;;;;;30.91;19.58;102151.50;1758404;81;20920;-72
2021/09/08 09:04:00;;;;;;;4.03;2.58;;;;;;;30.90;19.25;102144.91;1758558;80;21827;-72
2021/09/08 09:06:27;;;;;;;7.28;3.80;;;;;;;30.74;19.30;102145.94;1758412;81;28194;-71
2021/09/08 09:09:03;;;;;;;5.85;3.55;;;;;;;30.50;19.21;102143.00;1758335;81;20924;-70
2021/09/08 09:11:30;;;;;;;5.42;2.70;;;;;;;30.32;19.68;102139.31;1724637;82;20939;-73
2021/09/08 09:13:57;;;;;;;7.83;3.42;;;;;;;30.46;19.80;102139.84;1724993;81;20887;-72
2021/09/08 09:16:26;;;;;;;9.23;3.22;;;;;;;30.70;19.53;102139.20;1724918;83;21204;-73
2021/09/08 09:18:54;;;;;;;8.78;4.00;;;;;;;30.90;19.39;102128.13;1724697;81;20989;-72
2021/09/08 09:21:24;;;;;;;8.00;3.02;;;;;;;30.82;19.20;102129.58;1724822;81;20928;-72
2021/09/08 09:23:58;;;;;;;8.00;3.25;;;;;;;30.64;19.74;102129.13;1724842;83;20899;-74
2021/09/08 09:26:35;;;;;;;5.75;2.98;;;;;;;30.68;20.02;102126.36;1725269;83;20891;-73
2021/09/08 09:29:19;;;;;;;6.92;2.87;;;;;;;30.80;19.85;102120.80;1724831;83;21091;-72
2021/09/08 09:31:53;;;;;;;6.97;2.05;;;;;;;30.98;19.76;102121.25;1725022;83;20879;-74
2021/09/08 09:34:21;;;;;;;3.35;2.35;;;;;;;31.18;19.20;102120.11;1724738;83;20931;-73
2021/09/08 09:36:55;;;;;;;6.35;3.08;;;;;;;31.33;19.08;102117.36;1724669;81;20994;-72
2021/09/08 09:39:22;;;;;;;2.45;2.17;;;;;;;31.46;18.96;102113.11;1724898;83;20864;-73
2021/09/08 09:41:49;;;;;;;2.40;1.87;;;;;;;31.58;18.65;102112.92;1725123;83;22129;-73
2021/09/08 09:44:16;;;;;;;2.30;2.10;;;;;;;31.45;23.07;102118.23;1724793;83;20919;-74
2021/09/08 09:46:45;;;;;;;5.72;2.65;;;;;;;31.46;33.56;102119.89;1725075;83;20899;-73
2021/09/08 09:49:14;;;;;;;3.25;2.40;;;;;;;31.58;33.07;102115.64;1724670;82;20906;-74
2021/09/08 09:51:41;;;;;;;2.25;1.55;;;;;;;31.70;32.74;102107.80;1724711;83;21464;-73
2021/09/08 09:54:08;;;;;;;5.17;2.30;;;;;;;31.69;30.74;102112.91;1724770;83;21217;-73
2021/09/08 09:56:38;;;;;;;3.27;1.98;;;;;;;31.48;32.47;102106.48;1724775;83;20975;-72
2021/09/08 09:59:06;;;;;;;5.37;2.47;;;;;;;31.48;32.63;102111.91;1717250;82;21038;-74
2021/09/08 10:01:33;;;;;;;3.00;2.05;;;;;;;31.52;32.42;102103.68;1734472;81;20900;-74
2021/09/08 10:04:00;;;;;;;2.70;1.72;;;;;;;31.46;30.65;102109.05;1717049;83;21468;-73
2021/09/08 10:06:27;;;;;;;3.58;1.77;;;;;;;31.26;27.18;102098.84;1717014;83;21531;-73
2021/09/08 10:08:59;;;;;;;5.28;1.50;;;;;;;31.14;21.38;102097.14;1716750;83;20872;-72
2021/09/08 10:11:26;;;;;;;3.65;1.77;;;;;;;31.16;19.83;102088.30;1715839;82;20864;-76
2021/09/08 10:14:06;;;;;;;2.47;2.08;;;;;;;31.19;19.48;102096.06;1716725;82;20852;-73
2021/09/08 10:16:35;;;;;;;3.15;1.67;;;;;;;31.13;18.92;102086.51;1716422;83;21361;-73
2021/09/08 10:19:07;;;;;;;2.42;1.80;;;;;;;30.81;18.77;102091.31;1716448;83;21168;-73
2021/09/08 10:21:36;;;;;;;6.00;2.20;;;;;;;30.76;19.30;102082.93;1716758;83;20845;-74
2021/09/08 10:24:08;;;;;;;2.60;1.87;;;;;;;30.89;18.97;102083.12;1716800;83;20940;-74
2021/09/08 10:26:37;;;;;;;3.17;2.05;;;;;;;30.98;19.20;102080.61;1733864;82;20912;-74
2021/09/08 10:29:06;;;;;;;5.00;2.02;;;;;;;31.15;19.09;102071.73;1716429;83;20935;-73
2021/09/08 10:31:41;;;;;;;2.02;1.82;;;;;;;31.32;18.90;102078.23;1716422;83;21201;-74
2021/09/08 10:34:08;;;;;;;5.47;2.20;;;;;;;31.41;18.61;102075.70;1716833;83;21353;-72
2021/09/08 10:36:36;;;;;;;3.37;2.30;;;;;;;31.35;18.20;102068.38;1716476;82;20939;-74
2021/09/08 10:39:11;;;;;;;5.15;1.80;;;;;;;31.07;18.68;102069.66;1712029;83;20900;-73
2021/09/08 10:41:44;;;;;;;2.92;1.90;;;;;;;30.96;18.73;102068.28;1716480;83;21460;-73
2021/09/08 10:44:17;;;;;;;2.12;1.87;;;;;;;31.00;18.65;102061.98;1716729;83;21514;-74
2021/09/08 10:46:58;;;;;;;2.83;1.87;;;;;;;30.98;18.68;102066.23;1716508;83;20918;-74
2021/09/08 10:49:46;;;;;;;7.47;2.65;;;;;;;30.88;18.13;102051.66;1716782;83;20931;-76
2021/09/08 10:52:15;;;;;;;2.08;1.77;;;;;;;30.89;18.66;102049.77;1716850;83;20880;-74
2021/09/08 10:55:00;;;;;;;4.25;2.30;;;;;;;30.93;18.55;102044.30;1716725;83;20974;-74
2021/09/08 10:57:47;;;;;;;5.50;2.33;;;;;;;30.87;18.53;102041.83;1716287;83;21585;-74
2021/09/08 11:00:16;;;;;;;4.42;2.05;;;;;;;30.90;18.56;102036.53;1750051;80;20861;-73
2021/09/08 11:02:43;;;;;;;2.17;1.92;;;;;;;30.94;18.98;102035.95;1752639;82;20919;-74
2021/09/08 11:05:11;;;;;;;9.00;2.52;;;;;;;31.03;18.51;102037.20;1752601;82;20976;-74
2021/09/08 11:07:42;;;;;;;3.87;2.40;;;;;;;30.97;18.63;102034.23;1752590;80;20988;-73
2021/09/08 11:10:11;;;;;;;3.80;2.15;;;;;;;30.91;18.82;102036.87;1752417;81;21979;-72
2021/09/08 11:12:49;;;;;;;2.45;2.08;;;;;;;30.91;19.01;102033.64;1752462;80;21381;-74
2021/09/08 11:15:18;;;;;;;6.67;2.47;;;;;;;30.93;19.03;102032.11;1752755;82;20901;-72
2021/09/08 11:17:53;;;;;;;2.08;1.85;;;;;;;30.89;18.49;102030.81;1752380;80;21064;-72
2021/09/08 11:20:21;;;;;;;3.95;2.17;;;;;;;30.78;18.83;102031.59;1752540;80;20975;-73
2021/09/08 11:23:07;;;;;;;5.05;2.30;;;;;;;30.65;18.82;102028.73;1716455;82;21366;-74